Latest Coastal Weather Observations for Dunalley

IDT60701

Issued at 8:32 pm EST Sunday 28 August 2016 (issued every 10 minutes, with the page automatically refreshed every 10 minutes)

About coastal observations | Map of coastal stations | Coastal observations for TAS | Marine services | Other Formats
Station Details ID: 094254 Name: DUNALLEY (STROUD POINT) Lat: -42.90 Lon: 147.79 Height: 12.43 m
Data from the previous 72 hours. | See also: Recent months at Dunalley
Date/Time
EST
Temp
°C
Wind Pressure Rain since
9am
mm
Weather Cloud Vis
km
Sea
Height
m
Swell
Dir  Spd
kts
Gust
kts
hPa Trend Height
m
Period
s
Dir
28/08:30pm 6.9 WNW 6 7 1019.8 - 0.0 - - - - - - -
28/08:00pm 6.7 W 5 6 1019.3 - 0.0 - - - - - - -
28/07:30pm 7.0 WSW 6 9 1019.0 - 0.0 - - - - - - -
28/07:00pm 8.7 WSW 10 11 1018.8 - 0.0 - - - - - - -
28/06:30pm 9.0 WSW 14 16 1018.2 - 0.0 - - - - - - -
28/06:00pm 9.0 SW 13 16 1017.8 - 0.0 - - - - - - -
28/05:30pm 9.3 SW 16 19 1017.4 - 0.0 - - - - - - -
28/05:00pm 9.5 WSW 15 18 1017.0 - 0.0 - - - - - - -
28/04:30pm 9.6 W 10 12 1016.9 - 0.0 - - - - - - -
28/04:00pm 9.4 WSW 8 10 1016.8 - 0.0 - - - - - - -
28/03:30pm 10.6 WSW 10 12 1016.5 - 0.0 - - - - - - -
28/03:00pm 10.6 WSW 10 12 1016.4 - 0.0 - - - - - - -
28/02:30pm 10.5 W 13 16 1016.4 - 0.0 - - - - - - -
28/02:00pm 9.5 WSW 14 17 1016.4 - 0.0 - - - - - - -
28/01:30pm 10.2 SW 11 15 1016.4 - 0.0 - - - - - - -
28/01:00pm 9.6 SW 16 23 1016.6 - 0.0 - - - - - - -
28/12:30pm 10.1 WSW 14 17 1016.6 - 0.0 - - - - - - -
28/12:00pm 9.1 W 15 18 1016.7 - 0.0 - - - - - - -
28/11:30am 9.7 WSW 15 20 1016.7 - 0.0 - - - - - - -
28/11:00am 9.0 WSW 14 17 1016.7 - 0.0 - - - - - - -
28/10:30am 9.5 W 14 17 1016.5 - 0.0 - - - - - - -
28/10:00am 8.9 W 15 18 1016.4 - 0.0 - - - - - - -
28/09:30am 8.2 WSW 17 21 1016.0 - 0.0 - - - - - - -
28/09:00am 7.7 W 15 18 1015.6 - 1.2 - - - - - - -
28/08:30am 7.8 WSW 16 18 1015.4 - 1.2 - - - - - - -
28/08:00am 7.6 WSW 19 22 1014.9 - 1.2 - - - - - - -
28/07:30am 7.4 WSW 19 22 1014.5 - 1.2 - - - - - - -
28/07:00am 7.1 WSW 19 22 1013.7 - 1.2 - - - - - - -
28/06:30am 6.8 WSW 16 21 1013.1 - 1.2 - - - - - - -
28/06:00am 7.1 SW 17 26 1012.4 - 1.2 - - - - - - -
28/05:58am 7.0 SW 16 26 1012.2 - 1.2 - - - - - - -
28/05:30am 7.5 WSW 17 21 1011.8 - 1.2 - - - - - - -
28/05:00am 7.2 WSW 21 24 1010.7 - 1.2 - - - - - - -
28/04:30am 7.2 WSW 19 25 1010.5 - 1.0 - - - - - - -
28/04:00am 7.0 SW 24 30 1009.8 - 1.0 - - - - - - -
28/03:30am 6.9 SW 22 31 1009.5 - 1.0 - - - - - - -
28/03:24am 7.3 SW 18 28 1009.5 - 1.0 - - - - - - -
28/03:00am 7.3 SW 16 24 1009.0 - 1.0 Recent precip. - - - - - -
28/02:30am 7.5 SW 23 29 1008.4 - 0.6 - - - - - - -
28/02:00am 7.9 SW 24 30 1007.5 - 0.4 - - - - - - -
28/01:30am 7.9 SW 29 37 1006.8 - 0.4 - - - - - - -
28/01:22am 9.7 WSW 25 36 1006.4 - 0.0 - - - - - - -
28/01:00am 10.0 WNW 18 29 1005.8 - 0.0 - - - - - - -
28/12:38am 10.5 WNW 18 29 1005.2 - 0.0 - - - - - - -
28/12:30am 10.9 WNW 17 23 1005.2 - 0.0 - - - - - - -
28/12:00am 11.3 WNW 13 19 1004.8 - 0.0 - - - - - - -
 
Date/Time
EST
Temp
°C
Wind Pressure Rain since
9am
mm
Weather Cloud Vis
km
Sea
Height
m
Swell
Dir  Spd
kts
Gust
kts
hPa Trend Height
m
Period
s
Dir
27/11:30pm 11.3 N 5 7 1004.4 - 0.0 - - - - - - -
27/11:00pm 11.2 N 7 10 1004.4 - 0.0 - - - - - - -
27/10:30pm 11.7 N 8 12 1004.8 - 0.0 - - - - - - -
27/10:00pm 12.0 NNW 9 14 1005.3 - 0.0 - - - - - - -
27/09:30pm 12.1 NNW 9 15 1005.8 - 0.0 - - - - - - -
27/09:00pm 11.9 NNW 8 15 1006.0 - 0.0 - - - - - - -
27/08:30pm 12.1 NW 10 18 1006.0 - 0.0 - - - - - - -
27/08:08pm 12.1 NW 15 26 1006.3 - 0.0 - - - - - - -
27/08:00pm 11.7 NW 14 22 1006.4 - 0.0 - - - - - - -
27/07:30pm 12.1 NW 11 20 1006.8 - 0.0 - - - - - - -
27/07:00pm 11.8 WNW 11 18 1007.3 - 0.0 - - - - - - -
27/06:30pm 12.0 WNW 15 22 1007.6 - 0.0 - - - - - - -
27/06:26pm 12.1 WNW 16 26 1007.6 - 0.0 - - - - - - -
27/06:00pm 12.2 WNW 13 19 1007.6 - 0.0 - - - - - - -
27/05:30pm 12.4 WNW 15 23 1007.2 - 0.0 - - - - - - -
27/05:00pm 12.7 WNW 14 20 1007.5 - 0.0 - - - - - - -
27/04:32pm 13.4 WNW 15 25 1007.4 - 0.0 - - - - - - -
27/04:30pm 13.4 WNW 13 20 1007.4 - 0.0 - - - - - - -
27/04:09pm 13.5 WNW 15 26 1007.5 - 0.0 - - - - - - -
27/04:00pm 13.5 WNW 18 26 1007.5 - 0.0 - - - - - - -
27/03:30pm 13.8 WNW 19 27 1007.3 - 0.0 - - - - - - -
27/03:10pm 14.1 WNW 17 28 1007.3 - 0.0 - - - - - - -
27/03:00pm 14.3 WNW 14 20 1007.4 - 0.0 - - - - - - -
27/02:30pm 14.6 NW 15 21 1007.5 - 0.0 - - - - - - -
27/02:00pm 14.4 NW 22 33 1007.6 - 0.0 - - - - - - -
27/01:41pm 14.4 WNW 15 25 1007.9 - 0.0 - - - - - - -
27/01:30pm 14.4 WNW 19 26 1007.8 - 0.0 - - - - - - -
27/01:14pm 14.3 NW 16 27 1008.1 - 0.0 - - - - - - -
27/01:00pm 14.2 WNW 13 20 1008.4 - 0.0 - - - - - - -
27/12:47pm 13.9 WNW 16 27 1008.5 - 0.0 - - - - - - -
27/12:30pm 13.9 WNW 17 25 1008.8 - 0.0 - - - - - - -
27/12:00pm 13.7 NW 13 21 1009.2 - 0.0 - - - - - - -
27/11:30am 13.7 WNW 12 19 1009.7 - 0.0 - - - - - - -
27/11:00am 13.7 WNW 16 21 1009.9 - 0.0 - - - - - - -
27/10:30am 14.2 WNW 15 21 1010.2 - 0.0 - - - - - - -
27/10:00am 13.9 WNW 11 17 1010.7 - 0.0 - - - - - - -
27/09:30am 13.1 NW 16 24 1010.6 - 0.0 - - - - - - -
27/09:00am 12.7 NW 17 24 1010.7 - 0.0 - - - - - - -
27/08:30am 12.0 WNW 12 18 1011.2 - 0.0 - - - - - - -
27/08:00am 11.3 WNW 11 16 1011.2 - 0.0 - - - - - - -
27/07:30am 10.4 WNW 11 18 1011.4 - 0.0 - - - - - - -
27/07:00am 10.0 WNW 11 16 1011.3 - 0.0 - - - - - - -
27/06:30am 9.8 W 6 11 1011.2 - 0.0 - - - - - - -
27/06:00am 9.7 NW 7 15 1011.0 - 0.0 - - - - - - -
27/05:30am 9.4 NNW 5 7 1011.2 - 0.0 - - - - - - -
27/05:00am 9.8 NNW 8 13 1011.1 - 0.0 - - - - - - -
27/04:30am 10.0 NW 7 13 1011.2 - 0.0 - - - - - - -
27/04:00am 9.7 NW 8 13 1011.4 - 0.0 - - - - - - -
27/03:30am 9.6 WNW 12 18 1011.9 - 0.0 - - - - - - -
27/03:00am 10.2 WNW 14 21 1012.2 - 0.0 - - - - - - -
27/02:30am 9.9 WNW 9 16 1011.9 - 0.0 - - - - - - -
27/02:00am 10.4 NW 9 14 1011.3 - 0.0 - - - - - - -
27/01:30am 10.6 NW 11 19 1011.4 - 0.0 - - - - - - -
27/01:00am 10.4 NW 10 19 1011.8 - 0.0 - - - - - - -
27/12:30am 10.6 NW 11 17 1011.7 - 0.0 - - - - - - -
27/12:00am 10.4 NW 11 16 1012.1 - 0.0 - - - - - - -
 
Date/Time
EST
Temp
°C
Wind Pressure Rain since
9am
mm
Weather Cloud Vis
km
Sea
Height
m
Swell
Dir  Spd
kts
Gust
kts
hPa Trend Height
m
Period
s
Dir
26/11:30pm 10.3 NW 12 19 1012.4 - 0.0 - - - - - - -
26/11:00pm 10.5 WNW 13 21 1012.5 - 0.0 - - - - - - -
26/10:30pm 10.7 WNW 11 17 1012.7 - 0.0 - - - - - - -
26/10:00pm 11.0 WNW 10 18 1012.8 - 0.0 - - - - - - -
26/09:30pm 11.1 NW 12 17 1012.7 - 0.0 - - - - - - -
26/09:00pm 11.1 NW 12 17 1012.6 - 0.0 - - - - - - -
26/08:30pm 11.0 NW 11 17 1012.5 - 0.0 - - - - - - -
26/08:00pm 11.5 NW 10 18 1012.5 - 0.0 - - - - - - -
26/07:30pm 11.6 WNW 13 16 1012.3 - 0.0 - - - - - - -
26/07:00pm 11.7 WNW 15 21 1012.3 - 0.0 - - - - - - -
26/06:30pm 11.6 NW 13 17 1012.4 - 0.0 - - - - - - -
26/06:00pm 11.7 WNW 13 17 1012.0 - 0.0 - - - - - - -
26/05:30pm 12.2 NW 12 19 1011.8 - 0.0 - - - - - - -
26/05:00pm 12.9 WNW 12 18 1011.8 - 0.0 - - - - - - -
26/04:30pm 13.1 WNW 14 20 1011.6 - 0.0 - - - - - - -
26/04:00pm 14.3 WNW 14 21 1011.2 - 0.0 - - - - - - -
26/03:30pm 13.8 WNW 15 21 1011.0 - 0.0 - - - - - - -
26/03:00pm 14.5 WNW 15 21 1011.0 - 0.0 - - - - - - -
26/02:30pm 14.4 W 15 19 1011.1 - 0.0 - - - - - - -
26/02:00pm 14.1 W 16 23 1011.2 - 0.0 - - - - - - -
26/01:30pm 14.2 W 17 23 1011.3 - 0.0 - - - - - - -
26/01:00pm 14.3 W 15 21 1011.5 - 0.0 - - - - - - -
26/12:30pm 14.0 W 14 20 1011.8 - 0.0 - - - - - - -
26/12:00pm 13.7 WNW 14 21 1012.2 - 0.0 - - - - - - -
26/11:30am 12.7 WNW 17 22 1012.4 - 0.0 - - - - - - -
26/11:00am 12.5 WNW 12 17 1012.7 - 0.0 - - - - - - -
26/10:30am 11.7 WNW 13 21 1012.8 - 0.0 - - - - - - -
26/10:00am 10.8 WNW 13 20 1013.1 - 0.0 - - - - - - -
26/09:30am 10.5 WNW 11 18 1013.1 - 0.0 - - - - - - -
26/09:00am 9.8 NW 11 17 1013.4 - 1.0 - - - - - - -
26/08:30am 9.2 NW 10 17 1013.3 - 1.0 - - - - - - -
26/08:00am 8.2 NW 11 17 1013.6 - 1.0 - - - - - - -
26/07:30am 7.4 WNW 11 15 1013.6 - 1.0 - - - - - - -
26/07:00am 7.0 WNW 10 12 1013.5 - 1.0 - - - - - - -
26/06:30am 6.6 NW 9 13 1013.1 - 1.0 - - - - - - -
26/06:00am 6.2 WNW 9 13 1013.1 - 1.0 - - - - - - -
26/05:30am 6.4 NW 10 13 1013.0 - 1.0 - - - - - - -
26/05:00am 6.7 NW 10 13 1012.8 - 1.0 - - - - - - -
26/04:30am 6.5 NW 9 13 1012.7 - 1.0 - - - - - - -
26/04:00am 6.8 NW 9 13 1012.7 - 1.0 - - - - - - -
26/03:30am 6.5 WNW 11 15 1012.6 - 1.0 - - - - - - -
26/03:00am 6.5 NW 8 12 1012.7 - 1.0 - - - - - - -
26/02:30am 6.3 NW 9 13 1012.8 - 1.0 - - - - - - -
26/02:00am 6.6 NW 11 15 1013.1 - 1.0 - - - - - - -
26/01:30am 6.5 NW 11 15 1013.5 - 1.0 - - - - - - -
26/01:00am 6.5 NW 8 12 1013.7 - 1.0 - - - - - - -
26/12:30am 6.5 NW 8 11 1013.7 - 1.0 - - - - - - -
26/12:00am 6.6 NW 8 11 1013.7 - 1.0 - - - - - - -
 
Date/Time
EST
Temp
°C
Wind Pressure Rain since
9am
mm
Weather Cloud Vis
km
Sea
Height
m
Swell
Dir  Spd
kts
Gust
kts
hPa Trend Height
m
Period
s
Dir
25/11:30pm 6.6 NW 7 10 1013.7 - 1.0 - - - - - - -
25/11:00pm 6.6 NW 7 9 1013.8 - 1.0 - - - - - - -
25/10:30pm 6.6 NW 7 9 1013.8 - 1.0 - - - - - - -
25/10:00pm 6.6 NW 6 9 1013.7 - 1.0 - - - - - - -
25/09:30pm 6.7 WNW 7 10 1013.8 - 1.0 - - - - - - -
25/09:00pm 8.4 WSW 12 13 1013.7 - 1.0 - - - - - - -

Other Formats:

Comma delimited format used in spreadsheet applications
http://www.bom.gov.au/fwo/IDT60701/IDT60701.94951.axf

JavaScript Object Notation format (JSON) in row-major order
http://www.bom.gov.au/fwo/IDT60701/IDT60701.94951.json